Time;durP1;ratioP1;P1;durP2;ratioP2;P2;SDS_P1;SDS_P2;PMS_P1;PMS_P2;Temp;Humidity;BMP_temperature;BMP_pressure;BME280_temperature;BME280_humidity;BME280_pressure;Samples;Min_cycle;Max_cycle;Signal;HPM_P1;HPM_P2
2022/08/27 00:00:44;;;;;;;;;;;;;;;;;;8384029;28;27962;-78
2022/08/27 00:04:45;;;;;;;;;;;;;;;;;;8384142;28;27299;-77
2022/08/27 00:08:45;;;;;;;;;;;;;;;;;;8369144;28;28700;-80
2022/08/27 00:12:45;;;;;;;;;;;;;;;;;;8389350;28;28080;-78
2022/08/27 00:16:45;;;;;;;;;;;;;;;;;;8382970;28;28011;-78
2022/08/27 00:20:45;;;;;;;;;;;;;;;;;;8372007;28;29800;-79
2022/08/27 00:24:45;;;;;;;;;;;;;;;;;;8380310;28;28364;-79
2022/08/27 00:28:46;;;;;;;;;;;;;;;;;;8396247;27;29077;-79
2022/08/27 00:32:46;;;;;;;;;;;;;;;;;;8380939;28;28493;-80
2022/08/27 00:36:46;;;;;;;;;;;;;;;;;;8399019;27;28666;-78
2022/08/27 00:40:47;;;;;;;;;;;;;;;;;;8385960;28;27293;-78
2022/08/27 00:44:47;;;;;;;;;;;;;;;;;;8396692;27;28880;-79
2022/08/27 00:48:47;;;;;;;;;;;;;;;;;;8378691;28;28781;-79
2022/08/27 00:52:47;;;;;;;;;;;;;;;;;;8382608;28;27306;-79
2022/08/27 00:56:47;;;;;;;;;;;;;;;;;;8377569;28;27283;-78
2022/08/27 01:00:47;;;;;;;;;;;;;;;;;;8380657;28;27449;-77
2022/08/27 01:04:48;;;;;;;;;;;;;;;;;;8369270;28;28470;-79
2022/08/27 01:08:48;;;;;;;;;;;;;;;;;;8386724;28;27250;-78
2022/08/27 01:12:51;;;;;;;;;;;;;;;;;;8380861;28;28040;-78
2022/08/27 01:16:51;;;;;;;;;;;;;;;;;;8396693;27;28899;-80
2022/08/27 01:20:51;;;;;;;;;;;;;;;;;;8375249;28;28394;-79
2022/08/27 01:24:51;;;;;;;;;;;;;;;;;;8376864;28;29638;-80
2022/08/27 01:28:51;;;;;;;;;;;;;;;;;;8395689;27;28587;-78
2022/08/27 01:32:52;;;;;;;;;;;;;;;;;;8381307;28;27581;-79
2022/08/27 01:36:52;;;;;;;;;;;;;;;;;;8369845;28;28578;-80
2022/08/27 01:40:52;;;;;;;;;;;;;;;;;;8382456;28;28331;-78
2022/08/27 01:44:52;;;;;;;;;;;;;;;;;;8381894;28;27845;-78
2022/08/27 01:48:52;;;;;;;;;;;;;;;;;;8378807;28;28605;-79
2022/08/27 01:52:53;;;;;;;;;;;;;;;;;;8379577;28;28401;-78
2022/08/27 01:56:53;;;;;;;;;;;;;;;;;;8384283;28;27289;-78
2022/08/27 02:00:53;;;;;;;;;;;;;;;;;;8388290;28;27400;-78
2022/08/27 02:04:53;;;;;;;;;;;;;;;;;;8387247;28;27352;-78
2022/08/27 02:08:53;;;;;;;;;;;;;;;;;;8404445;27;28249;-78
2022/08/27 02:12:54;;;;;;;;;;;;;;;;;;8383748;28;28168;-79
2022/08/27 02:16:54;;;;;;;;;;;;;;;;;;8384961;28;27450;-78
2022/08/27 02:20:54;;;;;;;;;;;;;;;;;;8383780;28;28169;-78
2022/08/27 02:24:54;;;;;;;;;;;;;;;;;;8380911;27;28782;-79
2022/08/27 02:28:54;;;;;;;;;;;;;;;;;;8385339;28;29192;-78
2022/08/27 02:32:54;;;;;;;;;;;;;;;;;;8384514;28;27724;-78
2022/08/27 02:36:54;;;;;;;;;;;;;;;;;;8378527;28;28592;-80
2022/08/27 02:40:54;;;;;;;;;;;;;;;;;;8380878;28;28380;-79
2022/08/27 02:44:55;;;;;;;;;;;;;;;;;;8384873;28;27949;-79
2022/08/27 02:48:55;;;;;;;;;;;;;;;;;;8404431;27;28343;-79
2022/08/27 02:52:55;;;;;;;;;;;;;;;;;;8395044;27;28705;-79
2022/08/27 02:56:55;;;;;;;;;;;;;;;;;;8378386;28;28287;-77
2022/08/27 03:00:56;;;;;;;;;;;;;;;;;;8382001;28;28280;-79
2022/08/27 03:04:56;;;;;;;;;;;;;;;;;;8394693;27;28322;-79
2022/08/27 03:08:56;;;;;;;;;;;;;;;;;;8382142;27;28300;-79
2022/08/27 03:12:56;;;;;;;;;;;;;;;;;;8383641;28;27653;-80
2022/08/27 03:18:16;;;;;;;;;;;;;;;;;;8385078;28;28978;-79
2022/08/27 03:21:18;;;;;;;;;;;;;;;;;;8385179;28;27465;-78
2022/08/27 03:25:18;;;;;;;;;;;;;;;;;;8382016;28;27321;-80
2022/08/27 03:29:18;;;;;;;;;;;;;;;;;;8383315;28;27200;-79
2022/08/27 03:33:18;;;;;;;;;;;;;;;;;;8370272;28;28287;-78
2022/08/27 03:37:18;;;;;;;;;;;;;;;;;;8385607;28;27670;-78
2022/08/27 03:41:18;;;;;;;;;;;;;;;;;;8381432;27;28239;-78
2022/08/27 03:45:19;;;;;;;;;;;;;;;;;;8383071;28;27705;-78
2022/08/27 03:49:19;;;;;;;;;;;;;;;;;;8385965;28;27332;-78
2022/08/27 03:53:19;;;;;;;;;;;;;;;;;;8379358;28;27443;-78
2022/08/27 03:57:19;;;;;;;;;;;;;;;;;;8384916;28;27784;-77
2022/08/27 04:01:19;;;;;;;;;;;;;;;;;;8383859;27;27821;-79
2022/08/27 04:05:19;;;;;;;;;;;;;;;;;;8383587;28;27470;-78
2022/08/27 04:09:20;;;;;;;;;;;;;;;;;;8382084;28;27794;-78
2022/08/27 04:13:20;;;;;;;;;;;;;;;;;;8382159;28;28633;-80
2022/08/27 04:17:20;;;;;;;;;;;;;;;;;;8381729;28;27369;-80
2022/08/27 04:21:21;;;;;;;;;;;;;;;;;;8382256;28;28409;-79
2022/08/27 04:25:22;;;;;;;;;;;;;;;;;;8380122;28;28419;-79
2022/08/27 04:29:22;;;;;;;;;;;;;;;;;;8383894;28;27624;-79
2022/08/27 04:33:23;;;;;;;;;;;;;;;;;;8369112;28;29018;-78
2022/08/27 04:37:23;;;;;;;;;;;;;;;;;;8383821;28;27312;-78
2022/08/27 04:41:25;;;;;;;;;;;;;;;;;;8394883;27;28513;-78
2022/08/27 04:45:25;;;;;;;;;;;;;;;;;;8379418;28;28586;-78
2022/08/27 04:49:26;;;;;;;;;;;;;;;;;;8381151;28;28218;-79
2022/08/27 04:53:26;;;;;;;;;;;;;;;;;;8381894;28;29506;-79
2022/08/27 04:57:26;;;;;;;;;;;;;;;;;;8383260;28;27736;-79
2022/08/27 05:01:26;;;;;;;;;;;;;;;;;;8378425;28;27370;-80
2022/08/27 05:05:27;;;;;;;;;;;;;;;;;;8376069;28;27581;-80
2022/08/27 05:09:27;;;;;;;;;;;;;;;;;;8377747;28;28499;-79
2022/08/27 05:13:27;;;;;;;;;;;;;;;;;;8381404;28;27969;-78
2022/08/27 05:17:30;;;;;;;;;;;;;;;;;;8379273;28;28683;-79
2022/08/27 05:21:33;;;;;;;;;;;;;;;;;;8379620;28;28042;-80
2022/08/27 05:25:33;;;;;;;;;;;;;;;;;;8381958;28;27185;-78
2022/08/27 05:29:33;;;;;;;;;;;;;;;;;;8382622;28;27142;-79
2022/08/27 05:33:33;;;;;;;;;;;;;;;;;;8385899;28;27203;-77
2022/08/27 05:37:33;;;;;;;;;;;;;;;;;;8400826;27;28300;-79
2022/08/27 05:41:34;;;;;;;;;;;;;;;;;;8384881;28;28175;-79
2022/08/27 05:45:34;;;;;;;;;;;;;;;;;;8373364;28;28561;-78
2022/08/27 05:49:34;;;;;;;;;;;;;;;;;;8387763;28;28027;-78
2022/08/27 05:53:34;;;;;;;;;;;;;;;;;;8385327;28;27963;-79
2022/08/27 05:57:34;;;;;;;;;;;;;;;;;;8385143;28;27217;-77
2022/08/27 06:01:34;;;;;;;;;;;;;;;;;;8386724;28;27603;-78
2022/08/27 06:05:35;;;;;;;;;;;;;;;;;;8399095;27;28228;-79
2022/08/27 06:09:35;;;;;;;;;;;;;;;;;;8386937;28;27448;-78
2022/08/27 06:13:36;;;;;;;;;;;;;;;;;;8384392;27;28130;-78
2022/08/27 06:17:36;;;;;;;;;;;;;;;;;;8370762;28;28625;-78
2022/08/27 06:21:36;;;;;;;;;;;;;;;;;;8384061;28;27446;-77
2022/08/27 06:25:36;;;;;;;;;;;;;;;;;;8403821;27;28129;-78
2022/08/27 06:29:36;;;;;;;;;;;;;;;;;;8389431;28;27615;-77
2022/08/27 06:33:36;;;;;;;;;;;;;;;;;;8378031;28;28491;-78
2022/08/27 06:37:36;;;;;;;;;;;;;;;;;;8384529;28;27687;-78
2022/08/27 06:41:37;;;;;;;;;;;;;;;;;;8386752;27;27366;-78
2022/08/27 06:45:37;;;;;;;;;;;;;;;;;;8374716;28;29875;-77
2022/08/27 06:49:37;;;;;;;;;;;;;;;;;;8385433;27;27364;-78
2022/08/27 06:53:37;;;;;;;;;;;;;;;;;;8384455;28;27524;-78
2022/08/27 06:57:37;;;;;;;;;;;;;;;;;;8386427;28;27186;-78
2022/08/27 07:01:37;;;;;;;;;;;;;;;;;;8390098;28;29325;-78
2022/08/27 07:05:38;;;;;;;;;;;;;;;;;;8375588;28;28328;-78
2022/08/27 07:09:38;;;;;;;;;;;;;;;;;;8388436;28;27531;-79
2022/08/27 07:13:38;;;;;;;;;;;;;;;;;;8370872;28;28463;-78
2022/08/27 07:17:39;;;;;;;;;;;;;;;;;;8388676;27;27317;-78
2022/08/27 07:21:40;;;;;;;;;;;;;;;;;;8386655;27;28314;-78
2022/08/27 07:25:40;;;;;;;;;;;;;;;;;;8387081;28;28688;-80
2022/08/27 07:29:40;;;;;;;;;;;;;;;;;;8383972;28;27490;-78
2022/08/27 07:33:40;;;;;;;;;;;;;;;;;;8384158;28;27381;-78
2022/08/27 07:37:41;;;;;;;;;;;;;;;;;;8384283;28;27222;-78
2022/08/27 07:46:01;;;;;;;;;;;;;;;;;;8381498;28;27319;-78
2022/08/27 07:50:01;;;;;;;;;;;;;;;;;;8377645;28;28304;-78
2022/08/27 07:54:01;;;;;;;;;;;;;;;;;;8365249;28;28300;-77
2022/08/27 07:58:01;;;;;;;;;;;;;;;;;;8379174;28;28113;-78
2022/08/27 08:02:01;;;;;;;;;;;;;;;;;;8395292;27;28228;-78
2022/08/27 08:06:01;;;;;;;;;;;;;;;;;;8370854;28;29390;-77
2022/08/27 08:10:02;;;;;;;;;;;;;;;;;;8366330;28;28631;-78
2022/08/27 08:14:02;;;;;;;;;;;;;;;;;;8382364;28;28355;-77
2022/08/27 08:18:02;;;;;;;;;;;;;;;;;;8381098;28;29284;-77
2022/08/27 08:22:02;;;;;;;;;;;;;;;;;;8375838;28;27153;-77
2022/08/27 08:26:02;;;;;;;;;;;;;;;;;;8380401;28;27884;-78
2022/08/27 08:30:03;;;;;;;;;;;;;;;;;;8390162;27;28535;-77
2022/08/27 08:34:03;;;;;;;;;;;;;;;;;;8380443;28;27433;-77
2022/08/27 08:38:03;;;;;;;;;;;;;;;;;;8376605;28;27867;-78
2022/08/27 08:42:03;;;;;;;;;;;;;;;;;;8375700;28;28240;-76
2022/08/27 08:46:03;;;;;;;;;;;;;;;;;;8374675;28;27424;-77
2022/08/27 08:50:03;;;;;;;;;;;;;;;;;;8376970;28;27306;-76
2022/08/27 08:54:04;;;;;;;;;;;;;;;;;;8372909;28;28049;-75
2022/08/27 08:58:04;;;;;;;;;;;;;;;;;;8371666;28;28271;-77
2022/08/27 09:02:04;;;;;;;;;;;;;;;;;;8388295;28;28335;-78
2022/08/27 09:06:04;;;;;;;;;;;;;;;;;;8353627;28;27578;-77
2022/08/27 09:10:04;;;;;;;;;;;;;;;;;;8372137;28;27823;-77
2022/08/27 09:14:04;;;;;;;;;;;;;;;;;;8368198;28;28124;-78
2022/08/27 09:18:04;;;;;;;;;;;;;;;;;;8370915;28;27561;-78
2022/08/27 09:22:05;;;;;;;;;;;;;;;;;;8372626;28;27876;-77
2022/08/27 09:26:05;;;;;;;;;;;;;;;;;;8357846;28;28564;-79
2022/08/27 09:30:05;;;;;;;;;;;;;;;;;;8372795;28;28366;-77
2022/08/27 09:34:05;;;;;;;;;;;;;;;;;;8366560;28;28617;-78
2022/08/27 09:38:05;;;;;;;;;;;;;;;;;;8373190;28;28112;-78
2022/08/27 09:42:05;;;;;;;;;;;;;;;;;;8372571;28;28853;-77
2022/08/27 09:46:06;;;;;;;;;;;;;;;;;;8368563;28;28238;-77
2022/08/27 09:50:06;;;;;;;;;;;;;;;;;;8373573;28;28094;-78
2022/08/27 09:54:07;;;;;;;;;;;;;;;;;;8386377;27;28282;-78
2022/08/27 09:58:07;;;;;;;;;;;;;;;;;;8355143;28;28450;-77
2022/08/27 10:02:07;;;;;;;;;;;;;;;;;;8389482;27;28568;-77
2022/08/27 10:06:07;;;;;;;;;;;;;;;;;;8369429;28;28149;-78
2022/08/27 10:10:09;;;;;;;;;;;;;;;;;;8358544;28;28695;-77
2022/08/27 10:14:12;;;;;;;;;;;;;;;;;;8371481;28;27641;-77
2022/08/27 10:18:13;;;;;;;;;;;;;;;;;;8375445;28;28689;-78
2022/08/27 10:22:13;;;;;;;;;;;;;;;;;;8374981;28;27727;-78
2022/08/27 10:26:13;;;;;;;;;;;;;;;;;;8388941;27;28718;-78
2022/08/27 10:30:14;;;;;;;;;;;;;;;;;;8391936;27;28736;-78
2022/08/27 10:34:14;;;;;;;;;;;;;;;;;;8374361;28;28271;-78
2022/08/27 10:38:14;;;;;;;;;;;;;;;;;;8384731;27;28708;-78
2022/08/27 10:42:14;;;;;;;;;;;;;;;;;;8379092;28;27450;-78
2022/08/27 10:46:14;;;;;;;;;;;;;;;;;;8372018;28;27705;-78
2022/08/27 10:50:16;;;;;;;;;;;;;;;;;;8379475;28;27208;-77
2022/08/27 10:54:16;;;;;;;;;;;;;;;;;;8392987;27;28792;-77
2022/08/27 10:58:16;;;;;;;;;;;;;;;;;;8392414;27;28489;-78
2022/08/27 11:02:16;;;;;;;;;;;;;;;;;;8369329;28;47618;-76
2022/08/27 11:06:17;;;;;;;;;;;;;;;;;;8369129;28;29670;-77
2022/08/27 11:10:17;;;;;;;;;;;;;;;;;;8371126;28;27811;-78
2022/08/27 11:14:17;;;;;;;;;;;;;;;;;;8376623;28;27652;-77
2022/08/27 11:18:18;;;;;;;;;;;;;;;;;;8369508;28;27572;-76
2022/08/27 11:22:18;;;;;;;;;;;;;;;;;;8387475;27;27762;-76
2022/08/27 11:26:18;;;;;;;;;;;;;;;;;;8372491;28;27866;-75
2022/08/27 11:30:18;;;;;;;;;;;;;;;;;;8378169;28;28161;-76
2022/08/27 11:34:19;;;;;;;;;;;;;;;;;;8375586;28;27628;-77
2022/08/27 11:38:19;;;;;;;;;;;;;;;;;;8356910;28;29477;-76
2022/08/27 11:42:19;;;;;;;;;;;;;;;;;;8376277;28;28113;-79
2022/08/27 11:46:19;;;;;;;;;;;;;;;;;;8342423;28;28496;-78
2022/08/27 11:50:19;;;;;;;;;;;;;;;;;;8388315;28;28187;-79
2022/08/27 11:54:20;;;;;;;;;;;;;;;;;;8368865;28;29251;-78
2022/08/27 11:58:20;;;;;;;;;;;;;;;;;;8366430;28;28051;-79
2022/08/27 12:02:20;;;;;;;;;;;;;;;;;;8367115;28;28088;-78
2022/08/27 12:06:25;;;;;;;;;;;;;;;;;;8370226;28;27672;-78
2022/08/27 12:10:25;;;;;;;;;;;;;;;;;;8389763;27;28383;-77
2022/08/27 12:14:25;;;;;;;;;;;;;;;;;;8372129;28;27588;-78
2022/08/27 12:18:26;;;;;;;;;;;;;;;;;;8372249;28;27425;-78
2022/08/27 12:22:26;;;;;;;;;;;;;;;;;;8373979;28;28184;-78
2022/08/27 12:26:26;;;;;;;;;;;;;;;;;;8392948;28;28463;-79
2022/08/27 12:30:26;;;;;;;;;;;;;;;;;;8379056;28;28150;-78
2022/08/27 12:34:26;;;;;;;;;;;;;;;;;;8368115;28;28766;-78
2022/08/27 12:38:27;;;;;;;;;;;;;;;;;;8385204;27;28272;-78
2022/08/27 12:42:27;;;;;;;;;;;;;;;;;;8372962;28;27235;-77
2022/08/27 12:46:27;;;;;;;;;;;;;;;;;;8367017;28;27803;-78
2022/08/27 12:50:29;;;;;;;;;;;;;;;;;;8356365;28;28254;-77
2022/08/27 12:54:29;;;;;;;;;;;;;;;;;;8358686;28;28281;-77
2022/08/27 12:58:29;;;;;;;;;;;;;;;;;;8360480;28;28296;-80
2022/08/27 13:02:30;;;;;;;;;;;;;;;;;;8373077;28;27672;-78
2022/08/27 13:06:31;;;;;;;;;;;;;;;;;;8373197;28;28188;-77
2022/08/27 13:10:32;;;;;;;;;;;;;;;;;;8373861;28;27633;-78
2022/08/27 13:14:32;;;;;;;;;;;;;;;;;;8364102;28;29262;-76
2022/08/27 13:18:32;;;;;;;;;;;;;;;;;;8357124;28;28358;-79
2022/08/27 13:22:32;;;;;;;;;;;;;;;;;;8375032;28;28095;-78
2022/08/27 13:26:32;;;;;;;;;;;;;;;;;;8358223;28;28516;-78
2022/08/27 13:30:33;;;;;;;;;;;;;;;;;;8365932;28;28342;-78
2022/08/27 13:34:34;;;;;;;;;;;;;;;;;;8356344;28;29610;-78
2022/08/27 13:38:34;;;;;;;;;;;;;;;;;;8378880;27;27504;-79
2022/08/27 13:42:35;;;;;;;;;;;;;;;;;;8388441;27;28304;-80
2022/08/27 13:46:35;;;;;;;;;;;;;;;;;;8401664;27;27460;-79
2022/08/27 13:50:35;;;;;;;;;;;;;;;;;;8409336;27;27914;-78
2022/08/27 13:54:35;;;;;;;;;;;;;;;;;;8401532;27;28530;-77
2022/08/27 13:58:35;;;;;;;;;;;;;;;;;;8401166;27;28568;-78
2022/08/27 14:02:35;;;;;;;;;;;;;;;;;;8408051;27;27647;-78
2022/08/27 14:06:36;;;;;;;;;;;;;;;;;;8388342;27;29433;-79
2022/08/27 14:10:36;;;;;;;;;;;;;;;;;;8412575;27;27222;-77
2022/08/27 14:14:36;;;;;;;;;;;;;;;;;;8397457;27;28381;-78
2022/08/27 14:18:39;;;;;;;;;;;;;;;;;;8407842;27;28162;-77
2022/08/27 14:22:39;;;;;;;;;;;;;;;;;;8412012;27;27670;-78
2022/08/27 14:26:39;;;;;;;;;;;;;;;;;;8401679;27;27380;-77
2022/08/27 14:30:39;;;;;;;;;;;;;;;;;;8391914;27;28704;-77
2022/08/27 14:34:39;;;;;;;;;;;;;;;;;;8390280;27;28885;-76
2022/08/27 14:38:40;;;;;;;;;;;;;;;;;;8399004;27;28876;-77
2022/08/27 14:42:40;;;;;;;;;;;;;;;;;;8388602;27;28400;-77
2022/08/27 14:46:40;;;;;;;;;;;;;;;;;;8404793;27;28219;-78
2022/08/27 14:50:41;;;;;;;;;;;;;;;;;;8409757;27;27404;-78
2022/08/27 14:54:41;;;;;;;;;;;;;;;;;;8403761;27;27621;-78
2022/08/27 14:58:41;;;;;;;;;;;;;;;;;;8402567;27;27971;-77
2022/08/27 15:02:41;;;;;;;;;;;;;;;;;;8403694;27;27976;-77
2022/08/27 15:06:41;;;;;;;;;;;;;;;;;;8382947;27;28381;-78
2022/08/27 15:10:42;;;;;;;;;;;;;;;;;;8406211;27;28450;-79
2022/08/27 15:14:42;;;;;;;;;;;;;;;;;;8394264;27;28528;-76
2022/08/27 15:18:42;;;;;;;;;;;;;;;;;;8392338;27;28311;-77
2022/08/27 15:22:42;;;;;;;;;;;;;;;;;;8405155;27;27217;-79
2022/08/27 15:26:42;;;;;;;;;;;;;;;;;;8392914;27;28582;-77
2022/08/27 15:30:42;;;;;;;;;;;;;;;;;;8406272;27;27578;-78
2022/08/27 15:34:42;;;;;;;;;;;;;;;;;;8410980;27;27711;-77
2022/08/27 15:38:43;;;;;;;;;;;;;;;;;;8405036;27;28568;-79
2022/08/27 15:42:43;;;;;;;;;;;;;;;;;;8384097;27;29029;-78
2022/08/27 15:46:43;;;;;;;;;;;;;;;;;;8400913;27;27171;-77
2022/08/27 15:50:43;;;;;;;;;;;;;;;;;;8410677;27;27964;-78
2022/08/27 15:54:43;;;;;;;;;;;;;;;;;;8392718;27;29556;-78
2022/08/27 15:58:44;;;;;;;;;;;;;;;;;;8389194;27;28211;-77
2022/08/27 16:02:44;;;;;;;;;;;;;;;;;;8395034;27;28878;-77
2022/08/27 16:06:44;;;;;;;;;;;;;;;;;;8383947;27;29121;-77
2022/08/27 16:10:44;;;;;;;;;;;;;;;;;;8386743;27;29700;-76
2022/08/27 16:14:44;;;;;;;;;;;;;;;;;;8406220;27;27502;-80
2022/08/27 16:18:44;;;;;;;;;;;;;;;;;;8401547;27;27948;-77
2022/08/27 16:22:45;;;;;;;;;;;;;;;;;;8402424;27;28616;-78
2022/08/27 16:26:45;;;;;;;;;;;;;;;;;;8379539;27;27794;-79
2022/08/27 16:30:45;;;;;;;;;;;;;;;;;;8404273;27;27528;-80
2022/08/27 16:34:46;;;;;;;;;;;;;;;;;;8386668;27;28595;-78
2022/08/27 16:38:46;;;;;;;;;;;;;;;;;;8401227;27;27509;-77
2022/08/27 16:42:46;;;;;;;;;;;;;;;;;;8405926;27;28326;-76
2022/08/27 16:46:46;;;;;;;;;;;;;;;;;;8409862;27;27792;-76
2022/08/27 16:50:46;;;;;;;;;;;;;;;;;;8411419;27;28247;-77
2022/08/27 16:54:46;;;;;;;;;;;;;;;;;;8406588;27;28446;-77
2022/08/27 16:58:47;;;;;;;;;;;;;;;;;;8414819;27;27152;-78
2022/08/27 17:02:47;;;;;;;;;;;;;;;;;;8395528;27;29683;-78
2022/08/27 17:06:50;;;;;;;;;;;;;;;;;;8400716;27;29810;-77
2022/08/27 17:10:50;;;;;;;;;;;;;;;;;;8411300;27;28128;-77
2022/08/27 17:14:50;;;;;;;;;;;;;;;;;;8399522;27;29077;-78
2022/08/27 17:18:50;;;;;;;;;;;;;;;;;;8412608;27;27723;-77
2022/08/27 17:22:50;;;;;;;;;;;;;;;;;;8395717;27;28668;-77
2022/08/27 17:26:51;;;;;;;;;;;;;;;;;;8420133;27;27990;-77
2022/08/27 17:30:51;;;;;;;;;;;;;;;;;;8426842;27;27950;-78
2022/08/27 17:34:51;;;;;;;;;;;;;;;;;;8425883;27;27678;-78
2022/08/27 17:38:52;;;;;;;;;;;;;;;;;;8420799;27;27758;-77
2022/08/27 17:42:52;;;;;;;;;;;;;;;;;;8399509;27;28444;-78
2022/08/27 17:46:52;;;;;;;;;;;;;;;;;;8418895;27;27282;-78
2022/08/27 17:50:53;;;;;;;;;;;;;;;;;;8416351;27;28115;-78
2022/08/27 17:54:53;;;;;;;;;;;;;;;;;;8400549;27;28311;-77
2022/08/27 17:58:53;;;;;;;;;;;;;;;;;;8415562;27;27198;-78
2022/08/27 18:02:53;;;;;;;;;;;;;;;;;;8416372;27;27542;-77
2022/08/27 18:06:53;;;;;;;;;;;;;;;;;;8403535;27;28307;-77
2022/08/27 18:10:53;;;;;;;;;;;;;;;;;;8401569;27;28481;-77
2022/08/27 18:14:54;;;;;;;;;;;;;;;;;;8418422;27;27395;-76
2022/08/27 18:18:54;;;;;;;;;;;;;;;;;;8398047;27;28777;-77
2022/08/27 18:22:54;;;;;;;;;;;;;;;;;;8397727;27;28651;-77
2022/08/27 18:26:54;;;;;;;;;;;;;;;;;;8398868;27;28414;-78
2022/08/27 18:30:55;;;;;;;;;;;;;;;;;;8413462;27;28081;-76
2022/08/27 18:34:55;;;;;;;;;;;;;;;;;;8401518;27;28216;-77
2022/08/27 18:38:55;;;;;;;;;;;;;;;;;;8412429;27;27452;-78
2022/08/27 18:42:55;;;;;;;;;;;;;;;;;;8420075;27;27647;-77
2022/08/27 18:46:55;;;;;;;;;;;;;;;;;;8416292;27;27581;-77
2022/08/27 18:50:57;;;;;;;;;;;;;;;;;;8400324;27;28549;-78
2022/08/27 18:54:57;;;;;;;;;;;;;;;;;;8415442;27;27242;-78
2022/08/27 18:58:57;;;;;;;;;;;;;;;;;;8396661;27;28460;-77
2022/08/27 19:03:00;;;;;;;;;;;;;;;;;;8412039;27;27904;-78
2022/08/27 19:07:01;;;;;;;;;;;;;;;;;;8412216;27;28087;-78
2022/08/27 19:11:01;;;;;;;;;;;;;;;;;;8397832;27;29143;-78
2022/08/27 19:15:01;;;;;;;;;;;;;;;;;;8410404;27;28216;-77
2022/08/27 19:19:01;;;;;;;;;;;;;;;;;;8418100;27;27768;-77
2022/08/27 19:23:02;;;;;;;;;;;;;;;;;;8413669;27;27482;-77
2022/08/27 19:27:02;;;;;;;;;;;;;;;;;;8413162;27;28564;-77
2022/08/27 19:31:02;;;;;;;;;;;;;;;;;;8398374;27;28862;-77
2022/08/27 19:35:03;;;;;;;;;;;;;;;;;;8396846;27;28264;-78
2022/08/27 19:39:03;;;;;;;;;;;;;;;;;;8395399;27;28179;-78
2022/08/27 19:43:03;;;;;;;;;;;;;;;;;;8416849;27;27736;-76
2022/08/27 19:47:03;;;;;;;;;;;;;;;;;;8410991;27;27864;-77
2022/08/27 19:51:04;;;;;;;;;;;;;;;;;;8396084;27;28497;-77
2022/08/27 19:55:04;;;;;;;;;;;;;;;;;;8415859;27;28110;-76
2022/08/27 19:59:04;;;;;;;;;;;;;;;;;;8401955;27;28152;-77
2022/08/27 20:03:04;;;;;;;;;;;;;;;;;;8398826;27;28190;-77
2022/08/27 20:07:04;;;;;;;;;;;;;;;;;;8404048;27;27419;-77
2022/08/27 20:11:04;;;;;;;;;;;;;;;;;;8411683;27;28982;-78
2022/08/27 20:15:05;;;;;;;;;;;;;;;;;;8413099;27;27291;-78
2022/08/27 20:19:05;;;;;;;;;;;;;;;;;;8392197;27;28576;-77
2022/08/27 20:23:05;;;;;;;;;;;;;;;;;;8413831;27;27393;-78
2022/08/27 20:27:05;;;;;;;;;;;;;;;;;;8413770;27;27865;-77
2022/08/27 20:31:06;;;;;;;;;;;;;;;;;;8396397;27;29608;-77
2022/08/27 20:35:06;;;;;;;;;;;;;;;;;;8396590;27;29275;-78
2022/08/27 20:39:08;;;;;;;;;;;;;;;;;;8408165;27;46350;-77
2022/08/27 20:43:08;;;;;;;;;;;;;;;;;;8413175;27;27350;-78
2022/08/27 20:47:09;;;;;;;;;;;;;;;;;;8411849;27;27516;-77
2022/08/27 20:51:09;;;;;;;;;;;;;;;;;;8411443;27;28326;-78
2022/08/27 20:55:10;;;;;;;;;;;;;;;;;;8394454;27;46304;-77
2022/08/27 21:03:29;;;;;;;;;;;;;;;;;;8408770;27;27304;-78
2022/08/27 21:07:29;;;;;;;;;;;;;;;;;;8413470;27;27738;-79
2022/08/27 21:11:29;;;;;;;;;;;;;;;;;;8418039;27;27286;-78
2022/08/27 21:15:29;;;;;;;;;;;;;;;;;;8394734;27;28523;-77
2022/08/27 21:19:29;;;;;;;;;;;;;;;;;;8411779;27;27567;-77
2022/08/27 21:23:29;;;;;;;;;;;;;;;;;;8410161;27;27244;-78
2022/08/27 21:27:30;;;;;;;;;;;;;;;;;;8400374;27;28595;-77
2022/08/27 21:31:30;;;;;;;;;;;;;;;;;;8415559;27;27413;-77
2022/08/27 21:35:30;;;;;;;;;;;;;;;;;;8409269;27;27413;-78
2022/08/27 21:39:31;;;;;;;;;;;;;;;;;;8412602;27;28455;-78
2022/08/27 21:43:31;;;;;;;;;;;;;;;;;;8415004;27;27477;-76
2022/08/27 21:47:32;;;;;;;;;;;;;;;;;;8398052;27;28439;-77
2022/08/27 21:51:32;;;;;;;;;;;;;;;;;;8411864;27;28212;-76
2022/08/27 21:55:32;;;;;;;;;;;;;;;;;;8414274;27;28309;-76
2022/08/27 21:59:32;;;;;;;;;;;;;;;;;;8400711;27;28354;-78
2022/08/27 22:03:32;;;;;;;;;;;;;;;;;;8412485;27;27996;-77
2022/08/27 22:07:33;;;;;;;;;;;;;;;;;;8399063;27;28496;-77
2022/08/27 22:11:33;;;;;;;;;;;;;;;;;;8412306;27;27927;-77
2022/08/27 22:15:33;;;;;;;;;;;;;;;;;;8398350;27;28511;-78
2022/08/27 22:19:33;;;;;;;;;;;;;;;;;;8403464;27;28479;-77
2022/08/27 22:23:33;;;;;;;;;;;;;;;;;;8419807;27;27361;-78
2022/08/27 22:27:33;;;;;;;;;;;;;;;;;;8415260;27;28756;-79
2022/08/27 22:31:33;;;;;;;;;;;;;;;;;;8417584;27;28238;-77
2022/08/27 22:35:34;;;;;;;;;;;;;;;;;;8401698;27;28201;-78
2022/08/27 22:39:34;;;;;;;;;;;;;;;;;;8418550;27;27629;-78
2022/08/27 22:43:34;;;;;;;;;;;;;;;;;;8419369;27;27568;-78
2022/08/27 22:47:34;;;;;;;;;;;;;;;;;;8403356;27;28408;-77
2022/08/27 22:51:34;;;;;;;;;;;;;;;;;;8401595;27;28416;-77
2022/08/27 22:55:34;;;;;;;;;;;;;;;;;;8417145;27;28583;-77
2022/08/27 22:59:34;;;;;;;;;;;;;;;;;;8417995;27;28470;-78
2022/08/27 23:03:34;;;;;;;;;;;;;;;;;;8416066;27;27453;-77
2022/08/27 23:07:35;;;;;;;;;;;;;;;;;;8404181;27;28535;-77
2022/08/27 23:11:35;;;;;;;;;;;;;;;;;;8403572;27;28746;-79
2022/08/27 23:15:35;;;;;;;;;;;;;;;;;;8401247;27;28997;-77
2022/08/27 23:19:35;;;;;;;;;;;;;;;;;;8414894;27;27797;-78
2022/08/27 23:23:35;;;;;;;;;;;;;;;;;;8400603;27;28147;-78
2022/08/27 23:27:35;;;;;;;;;;;;;;;;;;8418732;27;27590;-77
2022/08/27 23:31:36;;;;;;;;;;;;;;;;;;8400304;27;28199;-78
2022/08/27 23:35:36;;;;;;;;;;;;;;;;;;8403244;27;29326;-77
2022/08/27 23:39:36;;;;;;;;;;;;;;;;;;8412614;27;27391;-79
2022/08/27 23:43:36;;;;;;;;;;;;;;;;;;8413363;27;27832;-78
2022/08/27 23:47:37;;;;;;;;;;;;;;;;;;8418543;27;27164;-77
2022/08/27 23:51:37;;;;;;;;;;;;;;;;;;8414589;27;27445;-78
2022/08/27 23:55:39;;;;;;;;;;;;;;;;;;8400648;27;28405;-78
2022/08/27 23:59:39;;;;;;;;;;;;;;;;;;8414791;27;27260;-77
